Time;durP1;ratioP1;P1;durP2;ratioP2;P2;SDS_P1;SDS_P2;PMS_P1;PMS_P2;Temp;Humidity;BMP_temperature;BMP_pressure;BME280_temperature;BME280_humidity;BME280_pressure;Samples;Min_cycle;Max_cycle;Signal;HPM_P1;HPM_P2
2021/08/22 00:01:33;;;;;;;7.43;4.38;;;;;;;;;;6125785;23;20062;-69
2021/08/22 00:03:59;;;;;;;10.02;4.65;;;;;;;;;;6125766;23;19990;-70
2021/08/22 00:06:25;;;;;;;10.77;4.78;;;;;;;;;;6125481;23;20062;-70
2021/08/22 00:08:51;;;;;;;8.95;4.85;;;;;;;;;;6125834;23;20002;-68
2021/08/22 00:11:17;;;;;;;12.90;5.05;;;;;;;;;;6125523;23;20384;-69
2021/08/22 00:13:43;;;;;;;10.13;4.03;;;;;;;;;;6099671;23;20463;-69
2021/08/22 00:16:10;;;;;;;11.32;4.40;;;;;;;;;;6125666;23;20001;-68
2021/08/22 00:18:36;;;;;;;15.48;4.18;;;;;;;;;;6125466;23;20081;-68
2021/08/22 00:21:02;;;;;;;10.77;4.30;;;;;;;;;;6125951;23;20033;-69
2021/08/22 00:23:28;;;;;;;9.07;4.15;;;;;;;;;;6125479;23;20002;-68
2021/08/22 00:25:55;;;;;;;10.75;4.85;;;;;;;;;;6125543;23;20002;-68
2021/08/22 00:28:21;;;;;;;17.38;6.10;;;;;;;;;;6125438;23;19994;-70
2021/08/22 00:30:47;;;;;;;15.05;5.20;;;;;;;;;;6125738;23;20057;-68
2021/08/22 00:33:13;;;;;;;12.50;5.28;;;;;;;;;;6125731;23;20001;-68
2021/08/22 00:35:39;;;;;;;11.90;4.20;;;;;;;;;;6125581;23;20077;-69
2021/08/22 00:38:05;;;;;;;17.17;4.45;;;;;;;;;;6125435;23;20002;-67
2021/08/22 00:40:31;;;;;;;10.43;4.25;;;;;;;;;;6125356;23;20028;-68
2021/08/22 00:42:57;;;;;;;8.80;4.53;;;;;;;;;;6125681;23;20380;-70
2021/08/22 00:45:23;;;;;;;8.32;4.13;;;;;;;;;;6125554;23;20002;-68
2021/08/22 00:47:50;;;;;;;16.80;4.50;;;;;;;;;;6125889;23;19998;-68
2021/08/22 00:50:17;;;;;;;8.52;4.38;;;;;;;;;;6125475;23;19994;-70
2021/08/22 00:52:42;;;;;;;9.65;3.97;;;;;;;;;;6125601;23;19998;-68
2021/08/22 00:55:09;;;;;;;8.98;4.47;;;;;;;;;;6125350;23;19998;-70
2021/08/22 00:57:36;;;;;;;12.05;4.00;;;;;;;;;;6126977;23;19993;-70
2021/08/22 01:00:05;;;;;;;9.95;4.15;;;;;;;;;;6127144;23;20006;-68
2021/08/22 01:02:33;;;;;;;7.32;4.32;;;;;;;;;;6127296;23;20009;-68
2021/08/22 01:05:18;;;;;;;9.88;4.47;;;;;;;;;;6127592;23;19994;-67
2021/08/22 01:07:55;;;;;;;13.48;4.32;;;;;;;;;;6126935;23;20018;-68
2021/08/22 01:10:24;;;;;;;9.25;4.43;;;;;;;;;;6101235;23;19998;-69
2021/08/22 01:12:55;;;;;;;13.05;4.82;;;;;;;;;;6127543;23;20412;-70
2021/08/22 01:15:21;;;;;;;14.20;4.95;;;;;;;;;;6077863;23;20009;-69
2021/08/22 01:17:50;;;;;;;14.88;5.22;;;;;;;;;;6127181;23;20002;-69
2021/08/22 01:20:22;;;;;;;17.30;4.90;;;;;;;;;;6126806;23;20010;-69
2021/08/22 01:22:50;;;;;;;12.15;4.93;;;;;;;;;;6101642;23;20432;-68
2021/08/22 01:25:17;;;;;;;13.02;4.43;;;;;;;;;;6127243;23;20001;-70
2021/08/22 01:27:44;;;;;;;9.10;4.30;;;;;;;;;;6127883;23;20080;-70
2021/08/22 01:30:15;;;;;;;9.15;4.28;;;;;;;;;;6127028;23;19998;-67
2021/08/22 01:32:41;;;;;;;7.45;3.65;;;;;;;;;;6127220;23;20002;-68
2021/08/22 01:35:08;;;;;;;9.18;5.00;;;;;;;;;;6127146;23;20025;-69
2021/08/22 01:37:35;;;;;;;12.82;4.80;;;;;;;;;;6095288;23;20167;-70
2021/08/22 01:40:03;;;;;;;10.00;4.93;;;;;;;;;;6124896;23;20088;-68
2021/08/22 01:42:29;;;;;;;9.88;4.45;;;;;;;;;;6126934;23;20036;-70
2021/08/22 01:44:55;;;;;;;11.65;4.03;;;;;;;;;;6127025;23;20001;-68
2021/08/22 01:47:22;;;;;;;8.52;4.43;;;;;;;;;;6127163;23;20323;-70
2021/08/22 01:49:48;;;;;;;11.43;4.65;;;;;;;;;;6101062;23;19994;-69
2021/08/22 01:52:15;;;;;;;9.20;4.50;;;;;;;;;;6126871;23;19998;-69
2021/08/22 01:54:42;;;;;;;8.27;3.92;;;;;;;;;;6126853;23;20001;-68
2021/08/22 01:57:09;;;;;;;9.52;4.38;;;;;;;;;;6126995;23;20005;-69
2021/08/22 01:59:38;;;;;;;9.27;4.88;;;;;;;;;;6126636;23;20056;-69
2021/08/22 02:02:04;;;;;;;;;;;;;;;;;;6101087;23;20002;-70
2021/08/22 02:04:33;;;;;;;8.82;4.47;;;;;;;;;;6126729;23;20318;-70
2021/08/22 02:07:03;;;;;;;8.73;4.65;;;;;;;;;;6126359;23;20010;-67
2021/08/22 02:09:36;;;;;;;9.35;4.35;;;;;;;;;;6126240;23;19998;-68
2021/08/22 02:12:06;;;;;;;9.13;4.80;;;;;;;;;;6126637;23;19997;-67
2021/08/22 02:14:35;;;;;;;9.82;4.60;;;;;;;;;;6126714;23;19998;-69
2021/08/22 02:17:01;;;;;;;10.13;5.10;;;;;;;;;;6126930;23;20052;-70
2021/08/22 02:19:29;;;;;;;12.30;4.32;;;;;;;;;;6100526;23;20679;-69
2021/08/22 02:21:55;;;;;;;7.72;4.78;;;;;;;;;;6126607;23;20005;-69
2021/08/22 02:24:22;;;;;;;11.40;4.45;;;;;;;;;;6126394;23;19998;-68
2021/08/22 02:26:48;;;;;;;7.85;5.47;;;;;;;;;;6126820;23;20305;-70
2021/08/22 02:29:14;;;;;;;11.50;4.55;;;;;;;;;;6126439;23;20002;-69
2021/08/22 02:31:40;;;;;;;13.45;4.65;;;;;;;;;;6126426;23;20428;-69
2021/08/22 02:34:05;;;;;;;8.65;4.55;;;;;;;;;;6126369;23;19990;-67
2021/08/22 02:36:32;;;;;;;7.13;4.72;;;;;;;;;;6126394;23;20002;-70
2021/08/22 02:38:58;;;;;;;12.32;5.00;;;;;;;;;;6126435;23;20137;-69
2021/08/22 02:41:23;;;;;;;9.77;4.78;;;;;;;;;;6126352;23;20421;-70
2021/08/22 02:43:49;;;;;;;12.35;4.85;;;;;;;;;;6126367;23;20028;-67
2021/08/22 02:46:15;;;;;;;9.93;5.07;;;;;;;;;;6126232;23;20002;-70
2021/08/22 02:48:41;;;;;;;10.20;5.80;;;;;;;;;;6126356;23;20025;-68
2021/08/22 02:51:07;;;;;;;8.48;5.18;;;;;;;;;;6126578;23;20002;-69
2021/08/22 02:53:33;;;;;;;13.15;4.80;;;;;;;;;;6126383;23;20420;-68
2021/08/22 02:55:59;;;;;;;9.35;5.40;;;;;;;;;;6126301;23;19997;-70
2021/08/22 02:58:25;;;;;;;10.82;5.15;;;;;;;;;;6126051;23;20009;-70
2021/08/22 03:00:51;;;;;;;9.68;4.82;;;;;;;;;;6100301;23;20002;-69
2021/08/22 03:03:17;;;;;;;20.00;5.80;;;;;;;;;;6126245;23;20033;-68
2021/08/22 03:05:43;;;;;;;10.38;5.25;;;;;;;;;;6126113;23;20006;-68
2021/08/22 03:08:09;;;;;;;11.68;5.50;;;;;;;;;;6125671;23;20022;-69
2021/08/22 03:10:35;;;;;;;10.90;5.97;;;;;;;;;;6125989;23;19998;-70
2021/08/22 03:13:01;;;;;;;15.65;5.55;;;;;;;;;;6126206;23;19998;-70
2021/08/22 03:15:27;;;;;;;12.88;5.95;;;;;;;;;;6125906;23;20072;-69
2021/08/22 03:17:54;;;;;;;12.45;5.45;;;;;;;;;;6126336;23;20008;-67
2021/08/22 03:20:20;;;;;;;10.55;5.43;;;;;;;;;;6125713;23;20013;-69
2021/08/22 03:22:46;;;;;;;9.90;5.32;;;;;;;;;;6126078;23;20002;-67
2021/08/22 03:25:13;;;;;;;11.00;5.22;;;;;;;;;;6126335;23;20004;-70
2021/08/22 03:27:39;;;;;;;12.40;5.30;;;;;;;;;;6125798;23;20069;-69
2021/08/22 03:30:06;;;;;;;9.38;5.10;;;;;;;;;;6125828;23;20005;-68
2021/08/22 03:32:32;;;;;;;12.30;5.82;;;;;;;;;;6125922;23;20001;-67
2021/08/22 03:34:58;;;;;;;10.85;5.93;;;;;;;;;;6126125;23;19998;-69
2021/08/22 03:37:25;;;;;;;10.63;5.95;;;;;;;;;;6125968;23;20002;-70
2021/08/22 03:39:52;;;;;;;10.27;5.68;;;;;;;;;;6125961;23;20052;-70
2021/08/22 03:42:18;;;;;;;11.30;5.53;;;;;;;;;;6125696;23;20005;-68
2021/08/22 03:44:44;;;;;;;10.95;5.35;;;;;;;;;;6125782;23;19998;-70
2021/08/22 03:47:10;;;;;;;7.40;4.25;;;;;;;;;;6125910;23;20309;-70
2021/08/22 03:49:36;;;;;;;12.77;5.00;;;;;;;;;;6125693;23;20005;-70
2021/08/22 03:52:03;;;;;;;10.25;4.65;;;;;;;;;;6125749;23;20002;-70
2021/08/22 03:54:29;;;;;;;8.27;5.15;;;;;;;;;;6125799;23;19997;-70
2021/08/22 03:56:56;;;;;;;9.32;5.00;;;;;;;;;;6125830;23;20013;-69
2021/08/22 03:59:21;;;;;;;8.65;5.82;;;;;;;;;;6125584;23;20013;-69
2021/08/22 04:01:47;;;;;;;11.52;5.13;;;;;;;;;;6125750;23;20479;-70
2021/08/22 04:04:14;;;;;;;13.90;6.43;;;;;;;;;;6125637;23;20021;-69
2021/08/22 04:06:47;;;;;;;9.07;5.00;;;;;;;;;;6125200;23;20387;-69
2021/08/22 04:09:15;;;;;;;10.88;5.35;;;;;;;;;;6099649;23;19998;-67
2021/08/22 04:11:43;;;;;;;9.23;4.78;;;;;;;;;;6125552;23;21286;-69
2021/08/22 04:14:10;;;;;;;10.25;5.07;;;;;;;;;;6100323;23;20018;-68
2021/08/22 04:16:36;;;;;;;8.50;4.88;;;;;;;;;;6125852;23;20002;-69
2021/08/22 04:19:02;;;;;;;9.23;5.32;;;;;;;;;;6125820;23;20006;-70
2021/08/22 04:21:29;;;;;;;8.88;5.20;;;;;;;;;;6099988;23;20002;-69
2021/08/22 04:23:55;;;;;;;7.70;5.05;;;;;;;;;;6125797;23;20004;-70
2021/08/22 04:26:21;;;;;;;8.80;5.32;;;;;;;;;;6125378;23;20000;-69
2021/08/22 04:28:46;;;;;;;8.10;5.07;;;;;;;;;;6125656;23;20440;-68
2021/08/22 04:31:13;;;;;;;8.57;4.85;;;;;;;;;;6126326;23;20002;-70
2021/08/22 04:33:38;;;;;;;11.27;6.72;;;;;;;;;;6127454;23;20026;-70
2021/08/22 04:36:05;;;;;;;8.65;5.53;;;;;;;;;;6127542;23;20008;-69
2021/08/22 04:38:34;;;;;;;9.80;5.40;;;;;;;;;;6127458;23;20013;-70
2021/08/22 04:41:00;;;;;;;9.95;5.03;;;;;;;;;;6127598;23;19999;-68
2021/08/22 04:43:27;;;;;;;10.68;5.15;;;;;;;;;;6127420;23;20077;-69
2021/08/22 04:45:52;;;;;;;11.43;5.72;;;;;;;;;;6127567;23;20008;-70
2021/08/22 04:48:19;;;;;;;19.00;5.55;;;;;;;;;;6127483;23;20029;-71
2021/08/22 04:50:45;;;;;;;18.25;6.25;;;;;;;;;;6127762;23;20005;-70
2021/08/22 04:53:11;;;;;;;11.15;5.30;;;;;;;;;;6127660;23;20025;-69
2021/08/22 04:55:36;;;;;;;13.80;5.38;;;;;;;;;;6127479;23;20081;-71
2021/08/22 04:58:03;;;;;;;10.35;4.70;;;;;;;;;;6127261;23;20104;-70
2021/08/22 05:00:29;;;;;;;13.27;5.35;;;;;;;;;;6127508;23;20010;-69
2021/08/22 05:02:55;;;;;;;9.38;5.82;;;;;;;;;;6127553;23;20006;-70
2021/08/22 05:05:21;;;;;;;12.77;5.47;;;;;;;;;;6101962;23;20420;-68
2021/08/22 05:07:47;;;;;;;13.32;4.78;;;;;;;;;;6126806;23;20017;-68
2021/08/22 05:10:16;;;;;;;6.38;4.55;;;;;;;;;;6126893;23;19998;-69
2021/08/22 05:12:42;;;;;;;5.83;4.23;;;;;;;;;;6127173;23;19998;-70
2021/08/22 05:15:09;;;;;;;6.60;4.38;;;;;;;;;;6127584;23;20025;-70
2021/08/22 05:17:34;;;;;;;7.93;4.00;;;;;;;;;;6127091;23;20427;-67
2021/08/22 05:20:01;;;;;;;6.35;4.00;;;;;;;;;;6126875;23;20016;-69
2021/08/22 05:22:27;;;;;;;7.63;4.50;;;;;;;;;;6127053;23;20004;-71
2021/08/22 05:24:53;;;;;;;7.70;4.38;;;;;;;;;;6127132;23;20304;-69
2021/08/22 05:27:19;;;;;;;7.07;5.05;;;;;;;;;;6127405;23;20088;-70
2021/08/22 05:29:46;;;;;;;4.18;3.42;;;;;;;;;;6127448;23;20002;-71
2021/08/22 05:32:12;;;;;;;5.20;4.50;;;;;;;;;;6126973;23;20416;-70
2021/08/22 05:34:38;;;;;;;7.25;3.55;;;;;;;;;;6126800;23;19998;-70
2021/08/22 05:37:04;;;;;;;10.13;4.70;;;;;;;;;;6127471;23;20373;-70
2021/08/22 05:39:31;;;;;;;7.78;4.50;;;;;;;;;;6126623;23;20006;-70
2021/08/22 05:41:57;;;;;;;5.32;3.97;;;;;;;;;;6127118;23;19998;-70
2021/08/22 05:44:22;;;;;;;7.60;4.30;;;;;;;;;;6126658;23;19998;-71
2021/08/22 05:46:48;;;;;;;14.25;4.72;;;;;;;;;;6127000;23;20001;-71
2021/08/22 05:49:14;;;;;;;8.45;3.90;;;;;;;;;;6127066;23;20006;-70
2021/08/22 05:51:43;;;;;;;6.30;3.55;;;;;;;;;;6126824;23;20005;-70
2021/08/22 05:54:09;;;;;;;6.15;3.65;;;;;;;;;;6126529;23;20339;-70
2021/08/22 05:56:34;;;;;;;5.30;3.60;;;;;;;;;;6126760;23;20003;-69
2021/08/22 05:59:00;;;;;;;5.10;4.18;;;;;;;;;;6126897;23;20383;-70
2021/08/22 06:01:27;;;;;;;6.65;4.10;;;;;;;;;;6126809;23;19998;-70
2021/08/22 06:03:54;;;;;;;6.78;3.72;;;;;;;;;;6126948;23;20100;-69
2021/08/22 06:06:19;;;;;;;6.75;3.97;;;;;;;;;;6126303;23;20001;-68
2021/08/22 06:08:45;;;;;;;4.63;3.42;;;;;;;;;;6126445;23;20006;-70
2021/08/22 06:11:12;;;;;;;5.70;4.00;;;;;;;;;;6126975;23;20029;-70
2021/08/22 06:13:38;;;;;;;7.25;3.70;;;;;;;;;;6126610;23;20045;-69
2021/08/22 06:16:04;;;;;;;6.72;3.33;;;;;;;;;;6126649;23;20002;-70
2021/08/22 06:18:31;;;;;;;8.98;4.20;;;;;;;;;;6126433;23;20033;-70
2021/08/22 06:20:57;;;;;;;6.57;4.07;;;;;;;;;;6126756;23;20005;-69
2021/08/22 06:23:23;;;;;;;9.32;4.03;;;;;;;;;;6126426;23;20490;-69
2021/08/22 06:25:49;;;;;;;4.65;3.30;;;;;;;;;;6126677;23;20002;-70
2021/08/22 06:28:15;;;;;;;6.25;4.30;;;;;;;;;;6126482;23;20084;-68
2021/08/22 06:30:42;;;;;;;5.38;3.20;;;;;;;;;;6126341;23;19998;-71
2021/08/22 06:33:09;;;;;;;6.65;3.83;;;;;;;;;;6126797;23;20001;-68
2021/08/22 06:35:36;;;;;;;16.98;4.03;;;;;;;;;;6126438;23;20077;-68
2021/08/22 06:38:02;;;;;;;7.93;3.50;;;;;;;;;;6126278;23;20380;-68
2021/08/22 06:40:29;;;;;;;4.60;3.90;;;;;;;;;;6126357;23;20010;-68
2021/08/22 06:42:54;;;;;;;5.72;3.75;;;;;;;;;;6126867;23;20006;-67
2021/08/22 06:45:21;;;;;;;5.70;3.92;;;;;;;;;;6126652;23;20450;-69
2021/08/22 06:47:49;;;;;;;10.57;4.28;;;;;;;;;;6126388;23;19998;-68
2021/08/22 06:50:15;;;;;;;7.47;3.97;;;;;;;;;;6126372;23;20001;-67
2021/08/22 06:52:40;;;;;;;9.60;4.30;;;;;;;;;;6125977;23;19998;-69
2021/08/22 06:55:07;;;;;;;9.63;3.70;;;;;;;;;;6126420;23;20498;-67
2021/08/22 06:57:33;;;;;;;11.30;3.65;;;;;;;;;;6126215;23;20002;-68
2021/08/22 07:00:00;;;;;;;9.45;3.25;;;;;;;;;;6126330;23;20006;-68
2021/08/22 07:02:25;;;;;;;9.88;4.15;;;;;;;;;;6126100;23;20331;-68
2021/08/22 07:04:51;;;;;;;6.15;3.90;;;;;;;;;;6126326;23;20005;-68
2021/08/22 07:07:17;;;;;;;6.90;3.85;;;;;;;;;;6125755;23;20022;-67
2021/08/22 07:09:44;;;;;;;7.93;4.32;;;;;;;;;;6126069;23;20036;-69
2021/08/22 07:12:09;;;;;;;6.68;4.18;;;;;;;;;;6125866;23;19998;-68
2021/08/22 07:14:36;;;;;;;7.30;3.58;;;;;;;;;;6126069;23;20065;-68
2021/08/22 07:17:02;;;;;;;6.20;3.80;;;;;;;;;;6126528;23;20331;-71
2021/08/22 07:19:28;;;;;;;8.13;3.55;;;;;;;;;;6125996;23;20010;-68
2021/08/22 07:21:54;;;;;;;8.45;3.58;;;;;;;;;;6099924;23;20119;-69
2021/08/22 07:24:21;;;;;;;6.60;3.40;;;;;;;;;;6125910;23;20003;-70
2021/08/22 07:26:48;;;;;;;7.68;3.47;;;;;;;;;;6126008;23;20032;-71
2021/08/22 07:29:13;;;;;;;4.72;3.40;;;;;;;;;;6126147;23;20076;-68
2021/08/22 07:31:39;;;;;;;5.50;3.58;;;;;;;;;;6125830;23;20032;-71
2021/08/22 07:34:05;;;;;;;5.18;3.40;;;;;;;;;;6125753;23;20006;-67
2021/08/22 07:36:31;;;;;;;5.93;2.95;;;;;;;;;;6125816;23;20005;-67
2021/08/22 07:38:57;;;;;;;5.88;3.00;;;;;;;;;;6125854;23;20010;-70
2021/08/22 07:41:22;;;;;;;5.05;3.08;;;;;;;;;;6126010;23;20045;-70
2021/08/22 07:43:48;;;;;;;5.15;3.60;;;;;;;;;;6125865;23;20003;-72
2021/08/22 07:46:14;;;;;;;4.80;3.08;;;;;;;;;;6125687;23;20446;-69
2021/08/22 07:48:39;;;;;;;7.80;3.63;;;;;;;;;;6125659;23;19997;-71
2021/08/22 07:51:05;;;;;;;5.88;3.30;;;;;;;;;;6099804;23;20006;-70
2021/08/22 07:53:31;;;;;;;3.97;3.00;;;;;;;;;;6125620;23;20002;-69
2021/08/22 07:55:56;;;;;;;6.22;2.80;;;;;;;;;;6125870;23;20001;-69
2021/08/22 07:58:23;;;;;;;12.57;2.83;;;;;;;;;;6125440;23;20002;-71
2021/08/22 08:00:48;;;;;;;4.93;2.97;;;;;;;;;;6126045;23;20080;-72
2021/08/22 08:03:14;;;;;;;3.33;2.03;;;;;;;;;;6125742;23;20427;-72
2021/08/22 08:05:40;;;;;;;4.38;1.90;;;;;;;;;;6125619;23;20002;-71
2021/08/22 08:08:06;;;;;;;3.25;2.40;;;;;;;;;;6125019;23;20022;-72
2021/08/22 08:10:32;;;;;;;4.15;2.50;;;;;;;;;;6125629;23;20008;-71
2021/08/22 08:12:58;;;;;;;5.68;2.55;;;;;;;;;;6125915;23;20401;-72
2021/08/22 08:15:24;;;;;;;3.45;2.60;;;;;;;;;;6125839;23;20001;-73
2021/08/22 08:17:50;;;;;;;3.38;2.40;;;;;;;;;;6126053;23;20001;-71
2021/08/22 08:20:16;;;;;;;5.15;2.28;;;;;;;;;;6125441;23;20320;-70
2021/08/22 08:22:41;;;;;;;4.22;2.33;;;;;;;;;;6125245;23;19998;-72
2021/08/22 08:25:08;;;;;;;4.70;2.15;;;;;;;;;;6100284;23;20002;-71
2021/08/22 08:27:34;;;;;;;5.07;2.35;;;;;;;;;;6125839;23;20081;-71
2021/08/22 08:30:00;;;;;;;2.45;2.13;;;;;;;;;;6125491;23;20004;-71
2021/08/22 08:32:26;;;;;;;4.57;2.88;;;;;;;;;;6125613;23;20072;-73
2021/08/22 08:34:52;;;;;;;4.55;2.28;;;;;;;;;;6125723;23;19997;-72
2021/08/22 08:37:18;;;;;;;4.05;2.65;;;;;;;;;;6125612;23;20002;-70
2021/08/22 08:39:44;;;;;;;5.57;2.40;;;;;;;;;;6125411;23;20009;-69
2021/08/22 08:42:12;;;;;;;3.72;2.65;;;;;;;;;;6099841;23;19997;-71
2021/08/22 08:44:37;;;;;;;5.25;2.22;;;;;;;;;;6125591;23;20435;-69
2021/08/22 08:47:05;;;;;;;2.75;2.05;;;;;;;;;;6125662;23;19998;-72
2021/08/22 08:49:37;;;;;;;4.00;2.25;;;;;;;;;;6125497;23;19994;-71
2021/08/22 08:52:23;;;;;;;9.85;2.38;;;;;;;;;;6125228;23;19998;-70
2021/08/22 08:55:02;;;;;;;4.63;2.10;;;;;;;;;;6125661;23;20320;-72
2021/08/22 08:57:29;;;;;;;;;;;;;;;;;;6125876;23;20005;-71
2021/08/22 08:59:54;;;;;;;3.13;1.88;;;;;;;;;;6125257;23;19912;-69
2021/08/22 09:02:20;;;;;;;2.22;1.55;;;;;;;;;;6124608;23;19998;-74
2021/08/22 09:04:50;;;;;;;4.15;2.67;;;;;;;;;;6125005;23;19998;-71
2021/08/22 09:07:35;;;;;;;4.30;1.88;;;;;;;;;;6124905;23;20115;-71
2021/08/22 09:10:28;;;;;;;2.50;1.75;;;;;;;;;;6125164;23;20415;-73
2021/08/22 09:13:12;;;;;;;7.07;1.83;;;;;;;;;;6125267;23;20021;-72
2021/08/22 09:15:54;;;;;;;1.60;1.48;;;;;;;;;;6125447;23;20360;-75
2021/08/22 09:18:38;;;;;;;1.95;1.52;;;;;;;;;;6126385;23;20002;-69
2021/08/22 09:21:14;;;;;;;2.20;1.52;;;;;;;;;;6127070;23;20006;-70
2021/08/22 09:23:58;;;;;;;3.05;1.80;;;;;;;;;;6126856;23;20331;-72
2021/08/22 09:27:03;;;;;;;6.78;1.70;;;;;;;;;;6126824;23;20364;-72
2021/08/22 09:29:48;;;;;;;3.40;1.70;;;;;;;;;;6096712;23;20008;-71
2021/08/22 09:32:40;;;;;;;3.13;2.00;;;;;;;;;;6101320;23;20001;-73
2021/08/22 09:35:30;;;;;;;2.83;1.83;;;;;;;;;;6127365;23;19998;-68
2021/08/22 09:38:15;;;;;;;3.55;1.95;;;;;;;;;;6127179;23;20335;-72
2021/08/22 09:41:13;;;;;;;2.60;2.00;;;;;;;;;;6126705;23;20343;-73
2021/08/22 09:43:42;;;;;;;4.28;2.03;;;;;;;;;;6126934;23;19998;-69
2021/08/22 09:46:27;;;;;;;2.45;2.20;;;;;;;;;;6126645;23;20408;-72
2021/08/22 09:49:18;;;;;;;3.17;1.70;;;;;;;;;;6100805;23;20447;-69
2021/08/22 09:52:02;;;;;;;4.30;2.03;;;;;;;;;;6095109;23;19999;-72
2021/08/22 09:54:44;;;;;;;5.32;2.22;;;;;;;;;;6126707;23;20367;-72
2021/08/22 09:57:28;;;;;;;2.83;2.00;;;;;;;;;;6126951;23;20085;-69
2021/08/22 10:00:06;;;;;;;1.92;1.67;;;;;;;;;;6126820;23;20005;-69
2021/08/22 10:02:51;;;;;;;4.45;1.63;;;;;;;;;;6126616;23;19998;-72
2021/08/22 10:05:36;;;;;;;2.80;2.20;;;;;;;;;;6126921;23;20002;-71
2021/08/22 10:08:21;;;;;;;5.20;1.90;;;;;;;;;;6126274;23;20081;-73
2021/08/22 10:10:54;;;;;;;6.07;1.73;;;;;;;;;;6126374;23;20438;-72
2021/08/22 10:13:20;;;;;;;2.47;1.80;;;;;;;;;;6126702;23;19998;-71
2021/08/22 10:15:46;;;;;;;1.85;1.73;;;;;;;;;;6126559;23;20361;-73
2021/08/22 10:18:19;;;;;;;3.55;1.85;;;;;;;;;;6126411;23;20428;-72
2021/08/22 10:20:47;;;;;;;2.80;2.33;;;;;;;;;;6126595;23;20057;-70
2021/08/22 10:23:38;;;;;;;4.32;2.00;;;;;;;;;;6126832;23;20008;-73
2021/08/22 10:26:04;;;;;;;4.07;2.10;;;;;;;;;;6126431;23;20487;-67
2021/08/22 10:29:01;;;;;;;4.05;2.10;;;;;;;;;;6125997;23;19998;-72
2021/08/22 10:31:45;;;;;;;2.88;2.15;;;;;;;;;;6126511;23;20301;-68
2021/08/22 10:34:21;;;;;;;5.35;2.20;;;;;;;;;;6126152;23;20001;-70
2021/08/22 10:36:48;;;;;;;3.38;2.00;;;;;;;;;;6126426;23;20462;-71
2021/08/22 10:39:27;;;;;;;2.95;2.25;;;;;;;;;;6126529;23;20034;-72
2021/08/22 10:41:54;;;;;;;3.28;2.20;;;;;;;;;;6126681;23;20026;-69
2021/08/22 10:44:39;;;;;;;6.22;3.42;;;;;;;;;;6126225;23;20029;-72
2021/08/22 10:47:05;;;;;;;3.97;2.38;;;;;;;;;;6126234;23;20427;-70
2021/08/22 10:49:50;;;;;;;4.75;2.78;;;;;;;;;;6100497;23;20339;-70
2021/08/22 10:52:35;;;;;;;4.80;2.55;;;;;;;;;;6126131;23;19998;-70
2021/08/22 10:55:22;;;;;;;6.53;2.80;;;;;;;;;;6126573;23;20006;-72
2021/08/22 10:57:50;;;;;;;3.75;2.28;;;;;;;;;;6126595;23;20490;-72
2021/08/22 11:00:20;;;;;;;4.53;2.40;;;;;;;;;;6126037;23;20088;-69
2021/08/22 11:02:46;;;;;;;5.72;2.67;;;;;;;;;;6126461;23;20081;-71
2021/08/22 11:05:16;;;;;;;2.80;2.40;;;;;;;;;;6126362;23;19998;-70
2021/08/22 11:07:46;;;;;;;7.57;3.30;;;;;;;;;;6125517;23;20018;-71
2021/08/22 11:10:13;;;;;;;2.55;2.35;;;;;;;;;;6126106;23;20041;-74
2021/08/22 11:12:39;;;;;;;2.25;2.05;;;;;;;;;;6125944;23;20008;-71
2021/08/22 11:15:05;;;;;;;3.97;2.10;;;;;;;;;;6126147;23;20041;-71
2021/08/22 11:17:32;;;;;;;6.18;2.53;;;;;;;;;;6125959;23;20001;-72
2021/08/22 11:20:18;;;;;;;4.82;2.70;;;;;;;;;;6126455;23;20012;-70
2021/08/22 11:22:44;;;;;;;5.38;2.58;;;;;;;;;;6125840;23;20454;-67
2021/08/22 11:25:10;;;;;;;4.75;2.30;;;;;;;;;;6126237;23;20001;-68
2021/08/22 11:27:36;;;;;;;4.20;2.65;;;;;;;;;;6125978;23;20081;-69
2021/08/22 11:30:04;;;;;;;4.10;2.47;;;;;;;;;;6125716;23;20041;-68
2021/08/22 11:32:31;;;;;;;5.13;2.55;;;;;;;;;;6125865;23;20025;-71
2021/08/22 11:35:04;;;;;;;5.18;2.50;;;;;;;;;;6125843;23;20049;-69
2021/08/22 11:37:31;;;;;;;4.88;2.70;;;;;;;;;;6125930;23;20002;-66
2021/08/22 11:40:03;;;;;;;3.20;2.45;;;;;;;;;;6125686;23;20010;-69
2021/08/22 11:42:30;;;;;;;4.32;2.38;;;;;;;;;;6125769;23;20001;-71
2021/08/22 11:45:09;;;;;;;3.17;2.10;;;;;;;;;;6126105;23;20009;-69
2021/08/22 11:47:36;;;;;;;3.13;2.10;;;;;;;;;;6125734;23;20057;-72
2021/08/22 11:50:04;;;;;;;4.07;2.28;;;;;;;;;;6125589;23;20008;-70
2021/08/22 11:52:31;;;;;;;4.80;2.60;;;;;;;;;;6125778;23;20142;-68
2021/08/22 11:54:57;;;;;;;4.30;2.35;;;;;;;;;;6125917;23;19998;-69
2021/08/22 11:57:23;;;;;;;2.40;2.20;;;;;;;;;;6126220;23;20009;-70
2021/08/22 12:00:03;;;;;;;4.30;2.53;;;;;;;;;;6125521;23;20432;-69
2021/08/22 12:02:29;;;;;;;4.60;2.70;;;;;;;;;;6125518;23;20036;-69
2021/08/22 12:05:14;;;;;;;7.05;2.95;;;;;;;;;;6125933;23;19998;-68
2021/08/22 12:07:41;;;;;;;10.50;2.78;;;;;;;;;;6125337;23;20077;-71
2021/08/22 12:10:09;;;;;;;6.63;2.33;;;;;;;;;;6125847;23;20384;-68
2021/08/22 12:12:39;;;;;;;5.50;2.40;;;;;;;;;;6125477;23;20439;-70
2021/08/22 12:15:09;;;;;;;5.47;2.30;;;;;;;;;;6125933;23;20007;-69
2021/08/22 12:17:35;;;;;;;3.47;2.50;;;;;;;;;;6125661;23;20464;-67
2021/08/22 12:20:21;;;;;;;3.40;2.50;;;;;;;;;;6125487;23;20312;-68
2021/08/22 12:23:06;;;;;;;3.15;2.17;;;;;;;;;;6125660;23;20450;-70
2021/08/22 12:25:32;;;;;;;6.30;2.65;;;;;;;;;;6125802;23;20002;-71
2021/08/22 12:28:16;;;;;;;3.15;2.42;;;;;;;;;;6125927;23;19998;-69
2021/08/22 12:30:43;;;;;;;5.60;2.47;;;;;;;;;;6125974;23;20025;-70
2021/08/22 12:33:27;;;;;;;2.78;2.22;;;;;;;;;;6126200;23;19994;-69
2021/08/22 12:36:01;;;;;;;5.97;2.42;;;;;;;;;;6125948;23;20383;-69
2021/08/22 12:38:44;;;;;;;6.15;2.60;;;;;;;;;;6125779;23;20320;-70
2021/08/22 12:41:29;;;;;;;5.43;2.67;;;;;;;;;;6125925;23;20006;-68
2021/08/22 12:43:55;;;;;;;4.82;2.60;;;;;;;;;;6125795;23;20388;-69
2021/08/22 12:46:22;;;;;;;3.80;2.83;;;;;;;;;;6125447;23;20064;-67
2021/08/22 12:48:48;;;;;;;7.68;2.60;;;;;;;;;;6126148;23;20065;-72
2021/08/22 12:51:15;;;;;;;5.30;2.78;;;;;;;;;;6125694;23;20037;-71
2021/08/22 12:53:41;;;;;;;8.18;3.00;;;;;;;;;;6127009;23;19998;-70
2021/08/22 12:56:06;;;;;;;3.45;2.75;;;;;;;;;;6127305;23;19998;-69
2021/08/22 12:58:33;;;;;;;3.20;2.50;;;;;;;;;;6127000;23;20495;-70
2021/08/22 13:00:59;;;;;;;3.55;2.65;;;;;;;;;;6127458;23;19998;-67
2021/08/22 13:03:25;;;;;;;5.68;2.90;;;;;;;;;;6127358;23;20005;-69
2021/08/22 13:05:51;;;;;;;5.10;2.88;;;;;;;;;;6127458;23;20057;-71
2021/08/22 13:08:17;;;;;;;3.20;2.40;;;;;;;;;;6126833;23;20348;-70
2021/08/22 13:10:43;;;;;;;3.00;2.40;;;;;;;;;;6127477;23;20013;-68
2021/08/22 13:13:10;;;;;;;4.63;3.20;;;;;;;;;;6127515;23;20008;-71
2021/08/22 13:15:36;;;;;;;7.75;2.83;;;;;;;;;;6127158;23;20092;-72
2021/08/22 13:18:02;;;;;;;5.20;2.60;;;;;;;;;;6127377;23;20005;-70
2021/08/22 13:20:31;;;;;;;3.97;2.40;;;;;;;;;;6127100;23;20436;-69
2021/08/22 13:22:57;;;;;;;7.15;2.72;;;;;;;;;;6127509;23;20005;-68
2021/08/22 13:25:24;;;;;;;4.57;2.67;;;;;;;;;;6127193;23;19998;-69
2021/08/22 13:27:50;;;;;;;4.68;2.50;;;;;;;;;;6127048;23;19998;-72
2021/08/22 13:30:16;;;;;;;4.15;2.45;;;;;;;;;;6126989;23;20331;-69
2021/08/22 13:32:42;;;;;;;4.00;2.40;;;;;;;;;;6126885;23;19994;-69
2021/08/22 13:35:08;;;;;;;5.05;2.78;;;;;;;;;;6127175;23;20002;-71
2021/08/22 13:37:34;;;;;;;10.20;2.75;;;;;;;;;;6126948;23;20081;-69
2021/08/22 13:40:00;;;;;;;5.05;2.67;;;;;;;;;;6126771;23;20508;-69
2021/08/22 13:42:26;;;;;;;8.68;2.90;;;;;;;;;;6126751;23;20025;-68
2021/08/22 13:44:52;;;;;;;5.18;3.00;;;;;;;;;;6127005;23;20416;-69
2021/08/22 13:47:18;;;;;;;4.03;2.38;;;;;;;;;;6127096;23;20005;-69
2021/08/22 13:49:44;;;;;;;3.30;2.63;;;;;;;;;;6126780;23;20420;-68
2021/08/22 13:52:10;;;;;;;2.97;2.45;;;;;;;;;;6126976;23;20052;-70
2021/08/22 13:54:36;;;;;;;4.22;2.83;;;;;;;;;;6126946;23;20002;-72
2021/08/22 13:57:01;;;;;;;3.03;2.60;;;;;;;;;;6126636;23;20008;-69
2021/08/22 13:59:27;;;;;;;3.97;2.90;;;;;;;;;;6126697;23;20379;-67
2021/08/22 14:01:53;;;;;;;5.72;2.50;;;;;;;;;;6126864;23;20009;-71
2021/08/22 14:04:19;;;;;;;4.38;2.95;;;;;;;;;;6126789;23;20017;-69
2021/08/22 14:06:45;;;;;;;4.50;2.70;;;;;;;;;;6126307;23;20073;-67
2021/08/22 14:09:11;;;;;;;3.20;2.70;;;;;;;;;;6126842;23;20312;-71
2021/08/22 14:11:37;;;;;;;5.90;2.95;;;;;;;;;;6126505;23;20026;-71
2021/08/22 14:14:03;;;;;;;6.28;3.00;;;;;;;;;;6126930;23;20002;-70
2021/08/22 14:16:29;;;;;;;4.78;2.90;;;;;;;;;;6126786;23;19998;-69
2021/08/22 14:18:54;;;;;;;3.47;2.70;;;;;;;;;;6126874;23;20316;-69
2021/08/22 14:21:21;;;;;;;3.25;2.67;;;;;;;;;;6126755;23;20426;-69
2021/08/22 14:23:47;;;;;;;4.78;3.38;;;;;;;;;;6126496;23;20423;-69
2021/08/22 14:26:14;;;;;;;4.38;2.85;;;;;;;;;;6126366;23;20005;-70
2021/08/22 14:28:39;;;;;;;6.55;3.10;;;;;;;;;;6126494;23;20072;-69
2021/08/22 14:31:06;;;;;;;3.88;2.90;;;;;;;;;;6126786;23;20036;-69
2021/08/22 14:33:33;;;;;;;5.13;2.50;;;;;;;;;;6126402;23;20451;-68
2021/08/22 14:35:59;;;;;;;3.97;3.00;;;;;;;;;;6126740;23;19994;-71
2021/08/22 14:38:24;;;;;;;2.75;2.50;;;;;;;;;;6126565;23;19994;-72
2021/08/22 14:40:51;;;;;;;3.95;2.97;;;;;;;;;;6126227;23;20016;-72
2021/08/22 14:43:17;;;;;;;4.40;2.67;;;;;;;;;;6126494;23;20446;-72
2021/08/22 14:45:43;;;;;;;3.50;2.60;;;;;;;;;;6126857;23;20077;-70
2021/08/22 14:48:08;;;;;;;5.55;3.38;;;;;;;;;;6126303;23;19998;-72
2021/08/22 14:50:35;;;;;;;5.20;2.85;;;;;;;;;;6126525;23;20002;-71